You are not logged in, Click here to log in
達拉斯-沃斯堡國際機場DFW / KDFW 美國德克薩斯州達拉斯/沃斯堡
ICAO: KDFW Country: 美國德克薩斯州達拉斯/沃斯堡
Latitude: 32.8968 Longitude: -97.038
Total Arrivals: 4 Total Departures: 6
Latest Arrival: CX3272 (KATL-KDFW)KE. CHIH-HAO Latest Departure: CX3272 (KDFW-KMIA)KE. CHIH-HAO
Scenery:
METAR : KDFW 261253Z 33026G34KT 10SM BKN023 BKN028 04/M01 A3033 RMK AO2 PK WND 33034/1252 RAB44E51 SLP271 P0000 T00391006

達拉斯-沃斯堡國際機場DFW